createdAt,value
2019-04-11T00:00:03.493Z,29.65
2019-04-11T00:01:03.796Z,31.46
2019-04-11T00:02:02.874Z,27.06
2019-04-11T00:03:02.972Z,26.51
2019-04-11T00:04:02.605Z,28.62
2019-04-11T00:05:02.866Z,27.91
2019-04-11T00:06:03.347Z,28.87
2019-04-11T00:07:03.714Z,25.56
2019-04-11T00:08:03.789Z,25.94
2019-04-11T00:09:03.353Z,25.97
2019-04-11T00:10:02.679Z,24.11
2019-04-11T00:11:03.772Z,24.11
2019-04-11T00:12:03.508Z,27.35
2019-04-11T00:13:14.051Z,25.79
2019-04-11T00:14:03.246Z,25.79
2019-04-11T00:15:04.331Z,23.26
2019-04-11T00:16:03.316Z,29.04
2019-04-11T00:17:03.777Z,23.36
2019-04-11T00:18:03.247Z,25.27
2019-04-11T00:19:03.148Z,26.42
2019-04-11T00:20:04.124Z,21.11
2019-04-11T00:21:02.914Z,23.94
2019-04-11T00:22:03.499Z,21.75
2019-04-11T00:23:02.848Z,23.84
2019-04-11T00:24:03.006Z,20.66
2019-04-11T00:25:03.146Z,21.1
2019-04-11T00:26:02.638Z,21.1
2019-04-11T00:27:02.611Z,23.74
2019-04-11T00:28:03.558Z,21.91
2019-04-11T00:29:03.833Z,23.87
2019-04-11T00:30:03.928Z,24.73
2019-04-11T00:31:02.678Z,22.28
2019-04-11T00:32:06.182Z,19.93
2019-04-11T00:33:03.467Z,26.08
2019-04-11T00:34:03.341Z,22.02
2019-04-11T00:35:03.658Z,22.92
2019-04-11T00:36:04.181Z,23.64
2019-04-11T00:37:03.548Z,22.83
2019-04-11T00:38:03.120Z,20.36
2019-04-11T00:39:03.514Z,22.95
2019-04-11T00:40:03.883Z,25.59
2019-04-11T00:41:03.721Z,22.25
2019-04-11T00:42:02.752Z,24.54
2019-04-11T00:43:03.229Z,19.69
2019-04-11T00:44:02.970Z,23.49
2019-04-11T00:45:03.322Z,20.15
2019-04-11T00:46:03.030Z,21.13
2019-04-11T00:47:02.822Z,24.64
2019-04-11T00:48:03.832Z,24.15
2019-04-11T00:49:03.187Z,25.25
2019-04-11T00:50:03.962Z,23.69
2019-04-11T00:51:03.505Z,20.66
2019-04-11T00:52:04.536Z,22.5
2019-04-11T00:53:03.547Z,20.51
2019-04-11T00:54:04.592Z,22.74
2019-04-11T00:55:03.581Z,21.79
2019-04-11T00:56:04.082Z,29.86
2019-04-11T00:57:02.856Z,21.86
2019-04-11T00:58:03.417Z,23.36
2019-04-11T00:59:02.999Z,23.38
2019-04-11T01:00:03.407Z,23.38
2019-04-11T01:01:03.738Z,22.55
2019-04-11T01:02:02.797Z,19.88
2019-04-11T01:03:03.717Z,18.79
2019-04-11T01:04:03.373Z,20.62
2019-04-11T01:05:03.543Z,20.62
2019-04-11T01:06:03.687Z,27.3
2019-04-11T01:07:04.687Z,23.11
2019-04-11T01:08:03.138Z,17.68
2019-04-11T01:09:04.083Z,20.86
2019-04-11T01:10:02.737Z,19.84
2019-04-11T01:11:03.519Z,21.67
2019-04-11T01:12:02.696Z,23.36
2019-04-11T01:13:02.906Z,22.08
2019-04-11T01:14:03.641Z,17.66
2019-04-11T01:15:03.130Z,21.26
2019-04-11T01:16:03.049Z,25.26
2019-04-11T01:17:03.230Z,20.02
2019-04-11T01:18:03.638Z,20.52
2019-04-11T01:19:02.776Z,21.19
2019-04-11T01:20:03.046Z,24.74
2019-04-11T01:21:03.965Z,21.92
2019-04-11T01:22:02.750Z,21.22
2019-04-11T01:23:02.883Z,24.3
2019-04-11T01:24:03.786Z,19.27
2019-04-11T01:25:04.157Z,26.24
2019-04-11T01:26:03.237Z,24.42
2019-04-11T01:27:03.474Z,25.6
2019-04-11T01:28:03.351Z,23.69
2019-04-11T01:29:03.279Z,21.99
2019-04-11T01:30:04.043Z,25.66
2019-04-11T01:31:03.300Z,18.7
2019-04-11T01:32:04.259Z,22.08
2019-04-11T01:33:04.492Z,21.91
2019-04-11T01:34:02.951Z,22.91
2019-04-11T01:35:03.190Z,21.98
2019-04-11T01:36:02.967Z,19.97
2019-04-11T01:37:03.779Z,26.62
2019-04-11T01:38:03.981Z,22.79
2019-04-11T01:39:03.088Z,23.91
2019-04-11T01:40:02.811Z,23.16
2019-04-11T01:41:03.087Z,24.75
2019-04-11T01:42:02.823Z,23.58
2019-04-11T01:43:03.911Z,21.11
2019-04-11T01:44:05.283Z,27.32
2019-04-11T01:45:03.208Z,18.64
2019-04-11T01:46:02.911Z,20.58
2019-04-11T01:47:03.052Z,26.84
2019-04-11T01:48:03.621Z,26.84
2019-04-11T01:49:03.910Z,27.93
2019-04-11T01:50:03.168Z,27.93
2019-04-11T01:51:02.992Z,20.21
2019-04-11T01:52:03.868Z,24.16
2019-04-11T01:53:03.116Z,20.69
2019-04-11T01:54:01.727Z,23.04
2019-04-11T01:55:03.931Z,22.47
2019-04-11T01:56:03.086Z,23.35
2019-04-11T01:57:03.469Z,29.12
2019-04-11T01:58:02.671Z,21.56
2019-04-11T01:59:02.868Z,27.25
2019-04-11T02:00:03.823Z,22.67
2019-04-11T02:01:02.604Z,23.57
2019-04-11T02:02:03.436Z,20.98
2019-04-11T02:03:03.406Z,23.16
2019-04-11T02:04:03.660Z,27.18
2019-04-11T02:05:04.781Z,20.44
2019-04-11T02:06:03.316Z,25.11
2019-04-11T02:07:04.512Z,25.11
2019-04-11T02:08:03.349Z,21.09
2019-04-11T02:09:03.898Z,23.09
2019-04-11T02:10:04.284Z,21.2
2019-04-11T02:11:03.368Z,23.22
2019-04-11T02:12:03.686Z,25.07
2019-04-11T02:13:03.616Z,25.38
2019-04-11T02:14:10.304Z,20.32
2019-04-11T02:15:03.961Z,22.39
2019-04-11T02:16:03.278Z,23.94
2019-04-11T02:17:03.197Z,22.82
2019-04-11T02:18:03.368Z,25.95
2019-04-11T02:19:03.669Z,24.44
2019-04-11T02:20:02.874Z,32.42
2019-04-11T02:21:03.216Z,22.97
2019-04-11T02:22:02.895Z,21.12
2019-04-11T02:23:02.966Z,21.68
2019-04-11T02:24:03.665Z,20.4
2019-04-11T02:25:03.847Z,21.42
2019-04-11T02:26:03.077Z,23.48
2019-04-11T02:27:03.052Z,21.36
2019-04-11T02:28:02.787Z,22.68
2019-04-11T02:29:03.448Z,19.51
2019-04-11T02:30:03.908Z,24.74
2019-04-11T02:31:05.299Z,21.31
2019-04-11T02:32:05.392Z,22.22
2019-04-11T02:33:04.600Z,20.21
2019-04-11T02:34:04.373Z,20.04
2019-04-11T02:35:05.070Z,22.02
2019-04-11T02:36:03.088Z,22.02
2019-04-11T02:37:05.006Z,22.08
2019-04-11T02:38:04.836Z,21.41
2019-04-11T02:39:07.764Z,21.41
2019-04-11T02:40:05.236Z,22.52
2019-04-11T02:41:04.132Z,18.08
2019-04-11T02:42:03.902Z,18.08
2019-04-11T02:43:04.863Z,24.78
2019-04-11T02:44:03.611Z,21.09
2019-04-11T02:45:19.491Z,18.59
2019-04-11T02:46:11.249Z,25.31
2019-04-11T02:47:09.334Z,21.44
2019-04-11T02:48:03.924Z,21.01
2019-04-11T02:49:03.395Z,26.29
2019-04-11T02:50:03.714Z,20.68
2019-04-11T02:51:05.223Z,25.47
2019-04-11T02:52:03.392Z,22.51
2019-04-11T02:53:04.879Z,30.22
2019-04-11T02:54:04.543Z,23.21
2019-04-11T02:55:03.504Z,27.08
2019-04-11T02:56:03.107Z,24.46
2019-04-11T02:57:03.161Z,21.79
2019-04-11T02:58:03.994Z,23.13
2019-04-11T02:59:05.042Z,25.91
2019-04-11T03:00:04.371Z,24.34
2019-04-11T03:01:05.244Z,24.56
2019-04-11T03:02:04.604Z,23.44
2019-04-11T03:03:03.530Z,21.21
2019-04-11T03:04:04.852Z,29.37
2019-04-11T03:05:05.332Z,23.13
2019-04-11T03:06:04.422Z,26.33
2019-04-11T03:07:03.880Z,28.17
2019-04-11T03:08:07.690Z,21.89
2019-04-11T03:09:04.663Z,20.91
2019-04-11T03:10:04.882Z,23.85
2019-04-11T03:11:05.166Z,24.82
2019-04-11T03:12:03.065Z,22.54
2019-04-11T03:13:04.570Z,20.99
2019-04-11T03:14:04.031Z,20.33
2019-04-11T03:15:19.767Z,19.77
2019-04-11T03:16:14.219Z,23.48
2019-04-11T03:17:12.731Z,23.94
2019-04-11T03:18:07.030Z,26.71
2019-04-11T03:19:17.507Z,20.11
2019-04-11T03:20:15.241Z,21.42
2019-04-11T03:21:08.690Z,23.71
2019-04-11T03:22:03.405Z,25.81
2019-04-11T03:23:06.096Z,25.05
2019-04-11T03:24:04.465Z,33.33
2019-04-11T03:25:03.236Z,26.46
2019-04-11T03:26:03.170Z,24.82
2019-04-11T03:27:04.881Z,24.82
2019-04-11T03:28:05.109Z,22.91
2019-04-11T03:29:04.093Z,24.09
2019-04-11T03:30:03.156Z,24.09
2019-04-11T03:31:32.313Z,28.6
2019-04-11T03:32:36.632Z,21.67
2019-04-11T03:35:59.184Z,23.84
2019-04-11T03:37:25.702Z,22.3
2019-04-11T03:38:22.788Z,22.09
2019-04-11T03:39:21.072Z,22.78
2019-04-11T03:40:21.843Z,21.42
2019-04-11T03:41:20.182Z,25.04
2019-04-11T03:42:13.989Z,22.85
2019-04-11T03:43:14.973Z,23.62
2019-04-11T03:44:10.670Z,21.18
2019-04-11T03:45:25.221Z,23.47
2019-04-11T03:46:19.220Z,24.26
2019-04-11T03:47:15.967Z,26.56
2019-04-11T03:49:17.610Z,23.04
2019-04-11T03:50:08.113Z,24.21
2019-04-11T03:51:04.474Z,22.59
2019-04-11T03:52:03.575Z,24.19
2019-04-11T03:53:04.533Z,25.61
2019-04-11T03:54:02.946Z,26.84
2019-04-11T03:55:05.759Z,23.88
2019-04-11T03:56:04.472Z,23.39
2019-04-11T03:57:04.025Z,21.54
2019-04-11T03:58:03.758Z,21.63
2019-04-11T03:59:04.028Z,25.58
2019-04-11T04:00:05.710Z,22.26
2019-04-11T04:01:06.415Z,22.19
2019-04-11T04:02:03.898Z,23.05
2019-04-11T04:03:04.663Z,22.51
2019-04-11T04:04:03.455Z,22.84
2019-04-11T04:05:03.916Z,24.68
2019-04-11T04:06:04.363Z,22.05
2019-04-11T04:07:04.745Z,25.33
2019-04-11T04:08:04.465Z,21.68
2019-04-11T04:09:03.507Z,22.22
2019-04-11T04:10:05.005Z,25.29
2019-04-11T04:11:03.976Z,26.79
2019-04-11T04:12:03.023Z,34.49
2019-04-11T04:13:04.915Z,29.69
2019-04-11T04:14:04.125Z,24.01
2019-04-11T04:15:04.361Z,22.74
2019-04-11T04:16:11.825Z,22.74
2019-04-11T04:17:04.126Z,27.96
2019-04-11T04:18:03.514Z,27.96
2019-04-11T04:19:03.622Z,24.9
2019-04-11T04:20:04.851Z,25.23
2019-04-11T04:21:04.223Z,25.74
2019-04-11T04:22:03.139Z,22.79
2019-04-11T04:23:05.135Z,21.98
2019-04-11T04:24:04.014Z,23.11
2019-04-11T04:25:04.322Z,24.27
2019-04-11T04:26:03.106Z,22.1
2019-04-11T04:27:04.476Z,33.36
2019-04-11T04:28:05.243Z,24.04
2019-04-11T04:29:04.407Z,20.58
2019-04-11T04:30:05.172Z,19.64
2019-04-11T04:31:04.558Z,23.5
2019-04-11T04:32:05.198Z,29.69
2019-04-11T04:33:04.734Z,23.63
2019-04-11T04:34:03.853Z,20.64
2019-04-11T04:35:06.849Z,22.21
2019-04-11T04:36:06.436Z,22.6
2019-04-11T04:37:03.624Z,21.48
2019-04-11T04:38:03.195Z,21.76
2019-04-11T04:39:03.988Z,22.31
2019-04-11T04:40:23.211Z,22.11
2019-04-11T04:41:14.630Z,19.68
2019-04-11T04:42:08.796Z,21.25
2019-04-11T04:43:05.689Z,22.72
2019-04-11T04:44:03.988Z,20.32
2019-04-11T04:45:04.959Z,24.63
2019-04-11T04:46:16.755Z,21.99
2019-04-11T04:47:13.525Z,24.17
2019-04-11T04:48:08.350Z,26.71
2019-04-11T04:49:04.694Z,24.34
2019-04-11T04:50:04.488Z,22.1
2019-04-11T04:51:08.234Z,24.02
2019-04-11T04:52:04.066Z,22.51
2019-04-11T04:53:04.993Z,25.39
2019-04-11T04:54:03.938Z,20.46
2019-04-11T04:55:04.429Z,21.55
2019-04-11T04:56:03.366Z,20.96
2019-04-11T04:57:04.672Z,25.68
2019-04-11T04:58:04.815Z,24.46
2019-04-11T04:59:04.869Z,24.39
2019-04-11T05:00:05.408Z,23.72
2019-04-11T05:01:04.292Z,24.89
2019-04-11T05:02:03.906Z,24.82
2019-04-11T05:03:03.218Z,26.99
2019-04-11T05:04:04.509Z,24.84
2019-04-11T05:05:04.154Z,29.9
2019-04-11T05:06:03.974Z,21.65
2019-04-11T05:07:03.342Z,21.65
2019-04-11T05:08:03.080Z,24.08
2019-04-11T05:09:04.249Z,23.23
2019-04-11T05:10:04.529Z,23.23
2019-04-11T05:11:04.326Z,30.64
2019-04-11T05:12:03.394Z,24.41
2019-04-11T05:13:03.762Z,24.41
2019-04-11T05:14:03.715Z,21.7
2019-04-11T05:15:03.843Z,25.91
2019-04-11T05:16:12.765Z,26.41
2019-04-11T05:17:03.562Z,26.39
2019-04-11T05:18:04.060Z,25.59
2019-04-11T05:19:04.465Z,25.5
2019-04-11T05:20:03.561Z,22.23
2019-04-11T05:21:03.381Z,26.84
2019-04-11T05:22:03.369Z,26.35
2019-04-11T05:23:04.299Z,23.47
2019-04-11T05:24:04.016Z,19.63
2019-04-11T05:25:03.900Z,20.98
2019-04-11T05:26:03.464Z,26.76
2019-04-11T05:27:02.565Z,28.58
2019-04-11T05:28:02.970Z,25.98
2019-04-11T05:29:02.923Z,25.19
2019-04-11T05:30:03.423Z,25.99
2019-04-11T05:31:03.195Z,23.32
2019-04-11T05:32:03.140Z,26.45
2019-04-11T05:33:03.982Z,23.85
2019-04-11T05:34:03.486Z,28.91
2019-04-11T05:35:03.398Z,31.77
2019-04-11T05:36:02.531Z,21.43
2019-04-11T05:37:02.404Z,24.63
2019-04-11T05:38:02.892Z,26.95
2019-04-11T05:39:03.016Z,24.39
2019-04-11T05:40:03.056Z,25.91
2019-04-11T05:41:02.811Z,23.16
2019-04-11T05:42:03.149Z,20.82
2019-04-11T05:43:03.836Z,20.22
2019-04-11T05:44:08.790Z,26.82
2019-04-11T05:45:03.251Z,26.37
2019-04-11T05:46:16.155Z,22.4
2019-04-11T05:47:05.552Z,27.28
2019-04-11T05:48:03.317Z,22.89
2019-04-11T05:49:03.812Z,26.64
2019-04-11T05:50:06.431Z,26.7
2019-04-11T05:51:04.317Z,26.7
2019-04-11T05:52:03.950Z,24.96
2019-04-11T05:53:03.865Z,31.45
2019-04-11T05:54:07.287Z,31.45
2019-04-11T05:55:03.287Z,23.62
2019-04-11T05:56:03.645Z,23.62
2019-04-11T05:57:03.338Z,24.51
2019-04-11T05:58:07.736Z,25.15
2019-04-11T05:59:03.339Z,26.26
2019-04-11T06:00:03.425Z,26.52
2019-04-11T06:01:03.390Z,28.87
2019-04-11T06:02:06.828Z,22.42
2019-04-11T06:03:03.772Z,24.89
2019-04-11T06:04:02.971Z,24.75
2019-04-11T06:05:03.109Z,24.38
2019-04-11T06:06:03.584Z,22.83
2019-04-11T06:07:03.238Z,26.59
2019-04-11T06:08:02.751Z,29.96
2019-04-11T06:09:03.958Z,27.04
2019-04-11T06:10:05.966Z,22.89
2019-04-11T06:11:04.650Z,23.91
2019-04-11T06:12:03.290Z,27.91
2019-04-11T06:13:02.753Z,27.05
2019-04-11T06:14:05.364Z,26.08
2019-04-11T06:15:03.838Z,26.09
2019-04-11T06:16:02.988Z,26.06
2019-04-11T06:17:02.971Z,28.49
2019-04-11T06:18:03.255Z,27.08
2019-04-11T06:19:02.465Z,25.12
2019-04-11T06:20:04.040Z,30.31
2019-04-11T06:21:03.946Z,29.16
2019-04-11T06:22:04.545Z,26.17
2019-04-11T06:23:04.679Z,18.98
2019-04-11T06:24:03.533Z,22.75
2019-04-11T06:25:03.639Z,24.84
2019-04-11T06:26:03.153Z,26.59
2019-04-11T06:27:04.002Z,26.36
2019-04-11T06:28:04.003Z,22.24
2019-04-11T06:29:14.403Z,23.93
2019-04-11T06:30:03.412Z,25.08
2019-04-11T06:31:04.517Z,23.98
2019-04-11T06:32:03.494Z,26.81
2019-04-11T06:33:04.530Z,24.06
2019-04-11T06:34:03.110Z,22.82
2019-04-11T06:35:03.867Z,25.24
2019-04-11T06:36:04.078Z,25.16
2019-04-11T06:37:03.561Z,24.65
2019-04-11T06:38:02.840Z,23.13
2019-04-11T06:39:02.964Z,25.95
2019-04-11T06:40:04.153Z,26.63
2019-04-11T06:41:02.973Z,32.18
2019-04-11T06:42:04.101Z,23.21
2019-04-11T06:45:04.055Z,25.74
2019-04-11T06:46:03.352Z,27.8
2019-04-11T06:47:03.779Z,24.38
2019-04-11T06:48:02.807Z,24.38
2019-04-11T06:49:04.373Z,25.85
2019-04-11T06:50:03.464Z,30.29
2019-04-11T06:51:03.864Z,23.37
2019-04-11T06:52:04.314Z,24.61
2019-04-11T06:53:04.393Z,23.18
2019-04-11T06:54:02.882Z,24.66
2019-04-11T06:55:04.469Z,26.62
2019-04-11T06:56:03.559Z,28.48
2019-04-11T06:57:03.494Z,23.79
2019-04-11T06:58:03.135Z,23.94
2019-04-11T06:59:03.846Z,25.91
2019-04-11T07:00:03.002Z,28.52
2019-04-11T07:01:03.536Z,24.09
2019-04-11T07:02:11.402Z,27.76
2019-04-11T07:03:03.491Z,25.85
2019-04-11T07:04:03.092Z,27.62
2019-04-11T07:05:04.191Z,29.86
2019-04-11T07:06:02.875Z,25.2
2019-04-11T07:07:02.825Z,24.77
2019-04-11T07:08:02.805Z,32
2019-04-11T07:09:03.310Z,25.08
2019-04-11T07:10:04.030Z,30.07
2019-04-11T07:11:03.540Z,26.69
2019-04-11T07:12:03.565Z,25.11
2019-04-11T07:13:03.447Z,28.05
2019-04-11T07:14:02.610Z,30.54
2019-04-11T07:15:04.488Z,30.54
2019-04-11T07:16:04.677Z,24.94
2019-04-11T07:17:06.068Z,24.94
2019-04-11T07:18:05.907Z,23.33
2019-04-11T07:19:03.541Z,24.28
2019-04-11T07:20:02.721Z,24.28
2019-04-11T07:21:03.125Z,33.07
2019-04-11T07:22:03.258Z,28.37
2019-04-11T07:23:03.728Z,33.84
2019-04-11T07:24:03.286Z,27.41
2019-04-11T07:25:03.958Z,24.05
2019-04-11T07:26:04.446Z,25.99
2019-04-11T07:27:03.151Z,32.39
2019-04-11T07:28:03.684Z,24.69
2019-04-11T07:29:02.532Z,36.19
2019-04-11T07:30:03.280Z,28.32
2019-04-11T07:31:04.446Z,26.2
2019-04-11T07:32:04.720Z,31.12
2019-04-11T07:33:03.929Z,38.68
2019-04-11T07:34:02.895Z,30.14
2019-04-11T07:35:04.642Z,34.33
2019-04-11T07:36:03.802Z,28.48
2019-04-11T07:37:02.859Z,31.19
2019-04-11T07:38:03.096Z,28.49
2019-04-11T07:39:03.227Z,29.91
2019-04-11T07:40:03.610Z,26.86
2019-04-11T07:41:04.100Z,26.38
2019-04-11T07:42:02.754Z,32.8
2019-04-11T07:43:07.241Z,29.59
2019-04-11T07:44:04.259Z,30.16
2019-04-11T07:45:04.203Z,27.04
2019-04-11T07:46:02.768Z,29.05
2019-04-11T07:47:13.459Z,26.52
2019-04-11T07:48:03.272Z,32.84
2019-04-11T07:49:03.723Z,27.2
2019-04-11T07:50:03.306Z,29.2
2019-04-11T07:51:03.211Z,29.63
2019-04-11T07:52:03.024Z,27.25
2019-04-11T07:53:03.140Z,33.68
2019-04-11T07:54:02.721Z,25.89
2019-04-11T07:55:04.580Z,27.82
2019-04-11T07:56:03.878Z,27.82
2019-04-11T07:57:04.011Z,31.14
2019-04-11T07:58:04.321Z,27.3
2019-04-11T07:59:03.115Z,27.3
2019-04-11T08:00:03.735Z,31.27
2019-04-11T08:01:02.206Z,28.48
2019-04-11T08:02:03.758Z,28.48
2019-04-11T08:03:04.089Z,57.84
2019-04-11T08:04:03.841Z,33.25
2019-04-11T08:05:04.390Z,28.12
2019-04-11T08:06:03.281Z,29.5
2019-04-11T08:07:04.401Z,27.16
2019-04-11T08:08:05.143Z,26.85
2019-04-11T08:09:03.232Z,28.49
2019-04-11T08:10:03.257Z,26.34
2019-04-11T08:11:02.725Z,25.01
2019-04-11T08:12:04.479Z,28.09
2019-04-11T08:13:03.753Z,30.15
2019-04-11T08:15:02.895Z,30.03
2019-04-11T08:16:04.365Z,27.92
2019-04-11T08:17:03.841Z,27.92
2019-04-11T08:18:04.034Z,24.72
2019-04-11T08:19:03.585Z,27.75
2019-04-11T08:20:03.568Z,30.13
2019-04-11T08:21:03.695Z,32.94
2019-04-11T08:22:03.457Z,27.23
2019-04-11T08:23:03.511Z,30.11
2019-04-11T08:24:04.264Z,30.13
2019-04-11T08:25:02.938Z,33.55
2019-04-11T08:26:03.967Z,34.95
2019-04-11T08:27:03.346Z,34.95
2019-04-11T08:28:05.851Z,31.79
2019-04-11T08:29:08.863Z,27.9
2019-04-11T08:30:03.332Z,27.9
2019-04-11T08:31:03.464Z,28.17
2019-04-11T08:32:03.074Z,33.88
2019-04-11T08:33:02.962Z,33.88
2019-04-11T08:34:02.842Z,30.57
2019-04-11T08:35:03.954Z,35.29
2019-04-11T08:36:02.785Z,27.65
2019-04-11T08:37:03.230Z,32.98
2019-04-11T08:38:02.987Z,34.27
2019-04-11T08:39:04.736Z,33.21
2019-04-11T08:40:03.880Z,33.21
2019-04-11T08:41:03.115Z,30.34
2019-04-11T08:42:03.281Z,32.5
2019-04-11T08:43:02.769Z,28.08
2019-04-11T08:44:03.614Z,29.11
2019-04-11T08:45:04.044Z,37.13
2019-04-11T08:46:04.588Z,28.51
2019-04-11T08:47:04.300Z,32.03
2019-04-11T08:48:04.480Z,33.59
2019-04-11T08:49:03.682Z,27.98
2019-04-11T08:50:03.917Z,27.52
2019-04-11T08:51:03.339Z,29.2
2019-04-11T08:52:03.809Z,28.36
2019-04-11T08:53:04.347Z,35.82
2019-04-11T08:54:02.916Z,27.28
2019-04-11T08:55:04.101Z,32.29
2019-04-11T08:56:03.890Z,38.48
2019-04-11T08:58:04.408Z,32.25
2019-04-11T08:59:02.898Z,27.83
2019-04-11T09:00:04.138Z,36.08
2019-04-11T09:01:03.358Z,37.58
2019-04-11T09:02:04.542Z,33.54
2019-04-11T09:03:02.503Z,28.75
2019-04-11T09:04:07.288Z,32.41
2019-04-11T09:05:10.241Z,29.58
2019-04-11T09:06:04.255Z,26.26
2019-04-11T09:07:03.620Z,32.34
2019-04-11T09:08:03.431Z,27.52
2019-04-11T09:09:04.684Z,27.24
2019-04-11T09:10:04.068Z,29.19
2019-04-11T09:11:02.832Z,37.56
2019-04-11T09:12:04.403Z,30.25
2019-04-11T09:13:03.155Z,30.73
2019-04-11T09:14:03.909Z,30.67
2019-04-11T09:15:04.330Z,29.65
2019-04-11T09:16:03.493Z,29.59
2019-04-11T09:17:03.826Z,27.42
2019-04-11T09:18:07.322Z,27.42
2019-04-11T09:19:03.620Z,28.31
2019-04-11T09:20:03.587Z,29.73
2019-04-11T09:21:04.085Z,29.73
2019-04-11T09:22:03.234Z,27.94
2019-04-11T09:23:03.714Z,30.05
2019-04-11T09:24:02.968Z,31.26
2019-04-11T09:25:03.474Z,32.98
2019-04-11T09:26:03.608Z,27.41
2019-04-11T09:27:03.008Z,33.78
2019-04-11T09:28:02.892Z,29.4
2019-04-11T09:29:03.944Z,32.58
2019-04-11T09:30:02.779Z,30.1
2019-04-11T09:31:04.212Z,33.01
2019-04-11T09:32:02.678Z,27.81
2019-04-11T09:33:03.187Z,36.05
2019-04-11T09:34:03.718Z,33.87
2019-04-11T09:35:03.074Z,33.96
2019-04-11T09:36:03.820Z,33.12
2019-04-11T09:37:03.668Z,32.43
2019-04-11T09:38:02.794Z,31.24
2019-04-11T09:39:04.558Z,34.06
2019-04-11T09:40:03.701Z,32.82
2019-04-11T09:41:04.047Z,34.77
2019-04-11T09:42:03.009Z,30.4
2019-04-11T09:43:03.854Z,35.72
2019-04-11T09:44:04.386Z,30.89
2019-04-11T09:45:03.572Z,30.6
2019-04-11T09:46:03.591Z,39.84
2019-04-11T09:47:03.492Z,30.31
2019-04-11T09:48:11.530Z,29.82
2019-04-11T09:49:02.982Z,36.75
2019-04-11T09:50:04.218Z,30.1
2019-04-11T09:51:03.103Z,31.55
2019-04-11T09:52:02.903Z,40.53
2019-04-11T09:53:03.624Z,32.18
2019-04-11T09:54:03.563Z,47.57
2019-04-11T09:55:04.395Z,42.03
2019-04-11T09:56:02.825Z,31.16
2019-04-11T09:57:04.418Z,36.35
2019-04-11T09:58:02.926Z,29.46
2019-04-11T09:59:02.854Z,31.66
2019-04-11T10:00:03.827Z,29.58
2019-04-11T10:01:03.761Z,29.8
2019-04-11T10:02:02.715Z,32.63
2019-04-11T10:03:03.009Z,29.7
2019-04-11T10:04:03.670Z,30.54
2019-04-11T10:05:03.642Z,30.54
2019-04-11T10:06:03.081Z,33.88
2019-04-11T10:07:03.399Z,35.93
2019-04-11T10:08:03.081Z,33.92
2019-04-11T10:09:03.769Z,29.1
2019-04-11T10:10:04.406Z,31.76
2019-04-11T10:11:03.718Z,33.26
2019-04-11T10:12:02.619Z,31.94
2019-04-11T10:13:02.755Z,32.53
2019-04-11T10:14:02.804Z,34.94
2019-04-11T10:15:03.151Z,31.85
2019-04-11T10:16:03.980Z,40.16
2019-04-11T10:17:02.999Z,29.25
2019-04-11T10:18:03.111Z,29.69
2019-04-11T10:19:03.513Z,31.52
2019-04-11T10:20:02.987Z,31.02
2019-04-11T10:21:03.103Z,31.84
2019-04-11T10:22:02.899Z,36.15
2019-04-11T10:23:03.279Z,32.18
2019-04-11T10:24:02.662Z,32.24
2019-04-11T10:25:03.284Z,38.65
2019-04-11T10:26:03.516Z,40.15
2019-04-11T10:27:02.739Z,33.41
2019-04-11T10:28:03.000Z,34.42
2019-04-11T10:29:04.354Z,36.56
2019-04-11T10:30:03.028Z,39.6
2019-04-11T10:31:04.225Z,38.51
2019-04-11T10:32:03.217Z,35.62
2019-04-11T10:33:04.301Z,35.24
2019-04-11T10:34:03.166Z,34.98
2019-04-11T10:35:03.118Z,40.57
2019-04-11T10:36:03.104Z,42.97
2019-04-11T10:37:03.476Z,33.78
2019-04-11T10:38:02.863Z,32.28
2019-04-11T10:39:02.985Z,34.83
2019-04-11T10:40:03.921Z,32.01
2019-04-11T10:41:04.158Z,38.01
2019-04-11T10:42:04.261Z,36.55
2019-04-11T10:43:04.292Z,38.21
2019-04-11T10:44:03.561Z,39.3
2019-04-11T10:45:04.507Z,42.54
2019-04-11T10:46:03.264Z,38.52
2019-04-11T10:47:04.761Z,45.24
2019-04-11T10:48:03.393Z,45.24
2019-04-11T10:49:03.715Z,37.98
2019-04-11T10:50:03.568Z,37.22
2019-04-11T10:51:04.555Z,37.22
2019-04-11T10:52:02.731Z,37.76
2019-04-11T10:53:03.044Z,37.84
2019-04-11T10:54:05.134Z,33.95
2019-04-11T10:55:03.388Z,32.61
2019-04-11T10:56:02.765Z,40.9
2019-04-11T10:57:03.515Z,35.6
2019-04-11T10:58:04.613Z,38.94
2019-04-11T10:59:03.489Z,36.66
2019-04-11T11:00:03.147Z,41.03
2019-04-11T11:01:03.947Z,43.42
2019-04-11T11:02:04.366Z,40.96
2019-04-11T11:03:04.038Z,36.36
2019-04-11T11:04:03.397Z,45.08
2019-04-11T11:05:03.565Z,38.79
2019-04-11T11:06:03.410Z,35.09
2019-04-11T11:07:02.960Z,42.16
2019-04-11T11:08:03.012Z,41.25
2019-04-11T11:09:03.937Z,39.54
2019-04-11T11:10:03.243Z,35.83
2019-04-11T11:11:03.923Z,38.24
2019-04-11T11:12:03.673Z,43.36
2019-04-11T11:13:03.472Z,42.37
2019-04-11T11:14:02.885Z,34.52
2019-04-11T11:15:03.243Z,31.55
2019-04-11T11:16:04.174Z,39.86
2019-04-11T11:17:03.027Z,36.07
2019-04-11T11:18:33.023Z,41.61
2019-04-11T11:19:27.206Z,38.65
2019-04-11T11:20:11.575Z,36.64
2019-04-11T11:21:04.209Z,43
2019-04-11T11:22:03.821Z,35.53
2019-04-11T11:23:06.705Z,40.33
2019-04-11T11:24:07.136Z,38.99
2019-04-11T11:25:03.222Z,44.69
2019-04-11T11:26:02.890Z,39.55
2019-04-11T11:27:04.188Z,34.48
2019-04-11T11:28:03.662Z,35.77
2019-04-11T11:29:06.988Z,34.72
2019-04-11T11:30:04.746Z,36.86
2019-04-11T11:31:03.256Z,39.55
2019-04-11T11:32:03.087Z,36.96
2019-04-11T11:33:03.751Z,36.96
2019-04-11T11:34:03.513Z,37.41
2019-04-11T11:35:03.391Z,39.94
2019-04-11T11:36:07.420Z,39.94
2019-04-11T11:37:02.714Z,38.35
2019-04-11T11:38:03.879Z,41.82
2019-04-11T11:39:02.635Z,41.82
2019-04-11T11:40:06.707Z,36.75
2019-04-11T11:41:03.863Z,35.24
2019-04-11T11:42:04.080Z,44.6
2019-04-11T11:43:03.553Z,36.44
2019-04-11T11:44:03.457Z,38.46
2019-04-11T11:45:04.187Z,35.26
2019-04-11T11:46:03.195Z,35.33
2019-04-11T11:47:03.792Z,41.19
2019-04-11T11:48:02.515Z,41.32
2019-04-11T11:49:03.826Z,36.19
2019-04-11T11:50:05.773Z,34.45
2019-04-11T11:51:03.443Z,35.56
2019-04-11T11:52:03.562Z,38.02
2019-04-11T11:53:07.268Z,35.98
2019-04-11T11:54:03.158Z,36.52
2019-04-11T11:55:04.063Z,38.28
2019-04-11T11:56:03.345Z,36.21
2019-04-11T11:57:04.476Z,40.81
2019-04-11T11:58:03.446Z,35.45
2019-04-11T11:59:03.482Z,36.29
2019-04-11T12:00:03.412Z,34.68
2019-04-11T12:01:06.964Z,37.06
2019-04-11T12:02:04.383Z,33.97
2019-04-11T12:03:03.650Z,39.11
2019-04-11T12:04:04.325Z,36.39
2019-04-11T12:05:07.635Z,43.94
2019-04-11T12:06:03.330Z,35
2019-04-11T12:07:04.274Z,39.11
2019-04-11T12:08:04.261Z,37.49
2019-04-11T12:09:04.359Z,41.46
2019-04-11T12:10:03.161Z,39.92
2019-04-11T12:11:03.956Z,39.62
2019-04-11T12:12:04.125Z,35.39
2019-04-11T12:13:07.681Z,40.64
2019-04-11T12:14:04.051Z,45.51
2019-04-11T12:15:03.516Z,41.09
2019-04-11T12:16:03.723Z,40.84
2019-04-11T12:17:05.233Z,40.91
2019-04-11T12:18:04.473Z,39.02
2019-04-11T12:19:02.832Z,39.49
2019-04-11T12:20:09.621Z,39.96
2019-04-11T12:21:03.362Z,39.96
2019-04-11T12:22:04.211Z,37.82
2019-04-11T12:23:03.230Z,36.41
2019-04-11T12:24:05.955Z,37.72
2019-04-11T12:25:03.239Z,41.94
2019-04-11T12:26:03.533Z,41.94
2019-04-11T12:27:04.381Z,42.92
2019-04-11T12:28:05.324Z,42.92
2019-04-11T12:29:03.077Z,38.49
2019-04-11T12:30:05.775Z,41.73
2019-04-11T12:31:03.779Z,47.88
2019-04-11T12:32:03.867Z,42.54
2019-04-11T12:33:03.419Z,41.41
2019-04-11T12:34:02.934Z,38.82
2019-04-11T12:35:04.051Z,40.07
2019-04-11T12:36:03.547Z,36.44
2019-04-11T12:37:04.268Z,42
2019-04-11T12:38:03.476Z,38.52
2019-04-11T12:39:03.186Z,46.66
2019-04-11T12:40:02.970Z,40.64
2019-04-11T12:41:03.349Z,41.4
2019-04-11T12:42:02.896Z,42.74
2019-04-11T12:43:03.099Z,37.51
2019-04-11T12:44:02.982Z,33.88
2019-04-11T12:45:03.308Z,33.88
2019-04-11T12:46:02.998Z,39.38
2019-04-11T12:47:03.055Z,41.92
2019-04-11T12:48:02.825Z,39.89
2019-04-11T12:49:02.837Z,41.37
2019-04-11T12:50:02.947Z,44.23
2019-04-11T12:51:02.790Z,43.64
2019-04-11T12:52:02.928Z,48.08
2019-04-11T12:54:02.478Z,42.49
2019-04-11T12:55:02.883Z,40.61
2019-04-11T12:56:02.827Z,45.45
2019-04-11T12:57:03.669Z,41.53
2019-04-11T12:58:02.871Z,43.56
2019-04-11T12:59:02.861Z,37.08
2019-04-11T13:00:02.771Z,46.13
2019-04-11T13:01:03.652Z,41.23
2019-04-11T13:02:03.473Z,65.42
2019-04-11T13:03:02.882Z,45.65